createdAt,value
2022-11-04T00:02:03.285Z,99.23
2022-11-04T00:04:06.753Z,100.00
2022-11-04T00:06:10.236Z,100.00
2022-11-04T00:08:25.622Z,99.72
2022-11-04T00:10:42.561Z,99.40
2022-11-04T00:12:45.527Z,99.48
2022-11-04T00:14:48.949Z,98.83
2022-11-04T00:17:09.679Z,99.82
2022-11-04T00:19:14.123Z,99.43
2022-11-04T00:21:34.556Z,99.10
2022-11-04T00:23:55.275Z,99.16
2022-11-04T00:26:15.501Z,98.24
2022-11-04T00:28:37.926Z,98.70
2022-11-04T00:30:40.979Z,98.82
2022-11-04T00:33:01.604Z,98.84
2022-11-04T00:35:07.218Z,97.95
2022-11-04T00:37:10.282Z,98.60
2022-11-04T00:39:13.267Z,97.71
2022-11-04T00:41:29.726Z,99.20
2022-11-04T00:43:32.939Z,98.75
2022-11-04T00:45:35.909Z,99.47
2022-11-04T00:47:39.483Z,97.83
2022-11-04T00:49:42.534Z,99.45
2022-11-04T00:51:47.009Z,98.75
2022-11-04T00:53:50.339Z,98.93
2022-11-04T00:55:53.383Z,99.33
2022-11-04T00:57:56.757Z,100.00
2022-11-04T00:59:59.948Z,99.16
2022-11-04T01:02:03.395Z,99.60
2022-11-04T01:04:06.740Z,99.76
2022-11-04T01:06:09.989Z,100.00
2022-11-04T01:08:15.305Z,100.00
2022-11-04T01:10:18.434Z,99.89
2022-11-04T01:12:21.583Z,100.00
2022-11-04T01:14:24.833Z,100.00
2022-11-04T01:18:31.269Z,100.00
2022-11-04T01:20:34.871Z,99.44
2022-11-04T01:22:37.941Z,100.00
2022-11-04T01:24:42.285Z,99.50
2022-11-04T01:26:45.469Z,100.00
2022-11-04T01:28:49.103Z,100.00
2022-11-04T01:30:52.207Z,100.00
2022-11-04T01:32:55.286Z,100.00
2022-11-04T01:35:00.486Z,100.00
2022-11-04T01:37:03.948Z,100.00
2022-11-04T01:39:06.967Z,100.00
2022-11-04T01:41:18.809Z,100.00
2022-11-04T01:43:23.431Z,99.63
2022-11-04T01:45:26.430Z,100.00
2022-11-04T01:47:33.365Z,99.46
2022-11-04T01:49:43.267Z,100.00
2022-11-04T01:51:48.565Z,99.83
2022-11-04T01:53:53.492Z,100.00
2022-11-04T01:55:58.856Z,98.73
2022-11-04T01:58:07.601Z,99.34
2022-11-04T02:00:12.083Z,98.03
2022-11-04T02:02:15.658Z,98.53
2022-11-04T02:04:30.102Z,97.69
2022-11-04T02:06:33.236Z,98.06
2022-11-04T02:08:36.713Z,98.54
2022-11-04T02:10:42.233Z,97.54
2022-11-04T02:12:50.401Z,96.94
2022-11-04T02:14:55.747Z,97.99
2022-11-04T02:17:02.749Z,97.66
2022-11-04T02:19:17.754Z,97.84
2022-11-04T02:21:36.030Z,97.08
2022-11-04T02:24:09.169Z,97.83
2022-11-04T02:26:38.876Z,98.68
2022-11-04T02:28:57.234Z,98.11
2022-11-04T02:31:04.608Z,98.25
2022-11-04T02:33:18.721Z,97.88
2022-11-04T02:35:25.812Z,97.90
2022-11-04T02:37:35.379Z,98.20
2022-11-04T02:39:42.087Z,98.71
2022-11-04T02:41:51.654Z,98.00
2022-11-04T02:43:59.546Z,97.52
2022-11-04T02:46:06.429Z,98.04
2022-11-04T02:48:13.110Z,96.88
2022-11-04T02:50:21.696Z,98.04
2022-11-04T02:52:28.170Z,97.10
2022-11-04T02:54:34.443Z,97.90
2022-11-04T02:56:40.686Z,97.47
2022-11-04T02:58:45.939Z,96.83
2022-11-04T03:00:49.905Z,96.22
2022-11-04T03:02:58.590Z,97.66
2022-11-04T03:05:02.492Z,95.74
2022-11-04T03:07:08.870Z,95.99
2022-11-04T03:09:13.245Z,97.35
2022-11-04T03:11:17.834Z,96.87
2022-11-04T03:13:23.080Z,96.75
2022-11-04T03:15:29.498Z,96.11
2022-11-04T03:17:35.249Z,96.77
2022-11-04T03:19:42.068Z,95.33
2022-11-04T03:21:51.425Z,96.36
2022-11-04T03:23:54.769Z,96.67
2022-11-04T03:26:00.117Z,96.07
2022-11-04T03:28:07.100Z,95.43
2022-11-04T03:30:12.712Z,94.57
2022-11-04T03:32:21.147Z,92.96
2022-11-04T03:34:24.165Z,94.87
2022-11-04T03:36:29.689Z,93.95
2022-11-04T03:38:33.085Z,94.21
2022-11-04T03:40:36.075Z,94.31
2022-11-04T03:42:43.535Z,94.16
2022-11-04T03:44:47.369Z,94.34
2022-11-04T03:46:50.440Z,93.63
2022-11-04T03:48:54.043Z,94.25
2022-11-04T03:50:57.161Z,93.68
2022-11-04T03:53:01.633Z,93.60
2022-11-04T03:55:05.087Z,92.96
2022-11-04T03:57:20.201Z,92.16
2022-11-04T03:59:37.218Z,92.06
2022-11-04T04:01:47.144Z,93.26
2022-11-04T04:03:55.927Z,92.55
2022-11-04T04:06:01.092Z,92.85
2022-11-04T04:08:15.119Z,93.39
2022-11-04T04:10:37.534Z,92.14
2022-11-04T04:12:41.648Z,92.57
2022-11-04T04:14:47.108Z,93.07
2022-11-04T04:16:50.739Z,93.42
2022-11-04T04:18:58.602Z,92.17
2022-11-04T04:21:04.052Z,92.35
2022-11-04T04:23:29.547Z,92.95
2022-11-04T04:25:51.712Z,93.60
2022-11-04T04:27:55.292Z,93.13
2022-11-04T04:29:58.821Z,93.00
2022-11-04T04:32:05.737Z,92.19
2022-11-04T04:34:09.385Z,92.87
2022-11-04T04:36:12.519Z,92.76
2022-11-04T04:38:36.622Z,93.35
2022-11-04T04:43:16.408Z,94.31
2022-11-04T04:45:24.497Z,94.67
2022-11-04T04:47:31.413Z,93.82
2022-11-04T04:49:36.013Z,93.94
2022-11-04T04:51:43.552Z,94.29
2022-11-04T04:53:46.491Z,94.84
2022-11-04T04:55:50.881Z,93.25
2022-11-04T04:57:54.020Z,94.76
2022-11-04T04:59:56.977Z,93.50
2022-11-04T05:02:00.452Z,93.36
2022-11-04T05:04:03.650Z,95.18
2022-11-04T05:06:07.379Z,94.42
2022-11-04T05:08:11.261Z,95.05
2022-11-04T05:10:16.450Z,95.43
2022-11-04T05:12:21.176Z,95.48
2022-11-04T05:14:23.305Z,93.94
2022-11-04T05:16:26.382Z,94.70
2022-11-04T05:18:29.378Z,94.79
2022-11-04T05:20:34.160Z,95.02
2022-11-04T05:22:37.331Z,94.28
2022-11-04T05:24:40.296Z,94.62
2022-11-04T05:26:43.751Z,95.12
2022-11-04T05:28:48.209Z,95.91
2022-11-04T05:30:51.353Z,94.70
2022-11-04T05:32:57.326Z,94.54
2022-11-04T05:35:03.167Z,94.18
2022-11-04T05:37:06.152Z,93.46
2022-11-04T05:39:09.764Z,94.39
2022-11-04T05:41:25.582Z,94.46
2022-11-04T05:43:29.040Z,93.82
2022-11-04T05:45:33.544Z,95.43
2022-11-04T05:47:36.545Z,94.90
2022-11-04T05:49:39.565Z,93.70
2022-11-04T05:51:43.012Z,93.75
2022-11-04T05:53:46.120Z,93.45
2022-11-04T05:55:49.070Z,94.57
2022-11-04T05:57:52.079Z,95.48
2022-11-04T05:59:55.408Z,94.20
2022-11-04T06:01:59.885Z,94.49
2022-11-04T06:04:04.756Z,94.88
2022-11-04T06:06:07.749Z,94.82
2022-11-04T06:08:11.080Z,94.82
2022-11-04T06:10:14.543Z,94.89
2022-11-04T06:12:17.817Z,94.71
2022-11-04T06:14:21.061Z,95.85
2022-11-04T06:16:24.407Z,95.01
2022-11-04T06:18:28.762Z,94.57
2022-11-04T06:20:31.778Z,95.65
2022-11-04T06:22:34.764Z,93.79
2022-11-04T06:24:37.782Z,93.91
2022-11-04T06:26:41.449Z,94.06
2022-11-04T06:28:44.527Z,95.86
2022-11-04T06:30:47.559Z,95.51
2022-11-04T06:32:50.704Z,96.32
2022-11-04T06:34:55.077Z,94.82
2022-11-04T06:36:58.338Z,96.69
2022-11-04T06:39:04.605Z,95.76
2022-11-04T06:41:08.848Z,97.46
2022-11-04T06:43:12.279Z,96.76
2022-11-04T06:45:16.428Z,96.55
2022-11-04T06:47:24.752Z,96.91
2022-11-04T06:49:28.429Z,96.57
2022-11-04T06:51:33.568Z,96.18
2022-11-04T06:53:36.504Z,96.54
2022-11-04T06:55:39.497Z,97.43
2022-11-04T06:57:42.531Z,96.23
2022-11-04T06:59:45.622Z,96.30
2022-11-04T07:01:50.251Z,96.49
2022-11-04T07:03:54.849Z,96.89
2022-11-04T07:05:59.187Z,97.52
2022-11-04T07:08:03.501Z,96.59
2022-11-04T07:10:07.569Z,96.11
2022-11-04T07:12:10.562Z,97.29
2022-11-04T07:14:14.291Z,97.44
2022-11-04T07:16:18.040Z,96.55
2022-11-04T07:18:21.055Z,96.62
2022-11-04T07:20:24.167Z,96.09
2022-11-04T07:22:27.134Z,97.23
2022-11-04T07:24:31.555Z,96.23
2022-11-04T07:26:34.751Z,96.81
2022-11-04T07:28:38.105Z,97.12
2022-11-04T07:30:41.074Z,96.89
2022-11-04T07:32:44.189Z,97.39
2022-11-04T07:34:47.155Z,96.78
2022-11-04T07:36:50.297Z,98.52
2022-11-04T07:38:53.340Z,97.69
2022-11-04T07:40:59.030Z,97.60
2022-11-04T07:43:02.070Z,97.80
2022-11-04T07:45:13.630Z,98.71
2022-11-04T07:47:16.677Z,97.38
2022-11-04T07:49:19.987Z,97.09
2022-11-04T07:51:23.322Z,96.97
2022-11-04T07:53:26.415Z,98.11
2022-11-04T07:55:29.417Z,98.17
2022-11-04T07:57:33.812Z,97.98
2022-11-04T07:59:36.868Z,98.33
2022-11-04T08:01:40.162Z,98.52
2022-11-04T08:03:43.972Z,99.25
2022-11-04T08:05:46.940Z,98.72
2022-11-04T08:07:50.477Z,98.48
2022-11-04T08:09:53.450Z,96.96
2022-11-04T08:11:56.489Z,99.07
2022-11-04T08:14:04.257Z,98.09
2022-11-04T08:16:09.605Z,97.86
2022-11-04T08:18:12.668Z,96.96
2022-11-04T08:20:16.047Z,97.10
2022-11-04T08:22:19.366Z,99.01
2022-11-04T08:24:22.840Z,98.97
2022-11-04T08:26:25.979Z,97.22
2022-11-04T08:28:29.822Z,97.18
2022-11-04T08:30:34.685Z,97.67
2022-11-04T08:32:37.850Z,97.31
2022-11-04T08:34:42.029Z,97.15
2022-11-04T08:36:45.366Z,96.63
2022-11-04T08:38:48.899Z,95.83
2022-11-04T08:40:57.045Z,97.11
2022-11-04T08:43:02.735Z,97.27
2022-11-04T08:45:06.929Z,95.92
2022-11-04T08:47:11.561Z,96.41
2022-11-04T08:49:19.616Z,95.18
2022-11-04T08:51:26.855Z,95.55
2022-11-04T08:53:29.987Z,94.76
2022-11-04T08:55:33.780Z,93.97
2022-11-04T08:57:37.011Z,95.35
2022-11-04T08:59:40.323Z,95.34
2022-11-04T09:01:43.805Z,93.31
2022-11-04T09:03:48.588Z,92.05
2022-11-04T09:05:52.223Z,93.38
2022-11-04T09:07:55.222Z,92.01
2022-11-04T09:09:58.307Z,92.76
2022-11-04T09:12:01.401Z,91.27
2022-11-04T09:14:05.857Z,90.95
2022-11-04T09:16:11.017Z,92.20
2022-11-04T09:18:14.040Z,90.92
2022-11-04T09:20:18.697Z,91.02
2022-11-04T09:22:21.806Z,91.28
2022-11-04T09:24:24.915Z,90.69
2022-11-04T09:26:28.097Z,91.07
2022-11-04T09:28:31.191Z,89.74
2022-11-04T09:30:34.398Z,90.56
2022-11-04T09:32:37.684Z,89.89
2022-11-04T09:34:40.722Z,90.28
2022-11-04T09:36:46.997Z,90.06
2022-11-04T09:38:50.153Z,90.48
2022-11-04T09:40:53.765Z,90.12
2022-11-04T09:43:09.999Z,90.60
2022-11-04T09:45:21.727Z,91.27
2022-11-04T09:47:26.952Z,89.59
2022-11-04T09:49:37.461Z,88.86
2022-11-04T09:51:57.702Z,88.44
2022-11-04T09:54:04.878Z,89.08
2022-11-04T09:56:14.897Z,88.55
2022-11-04T09:58:18.214Z,89.21
2022-11-04T10:00:21.388Z,87.93
2022-11-04T10:02:47.644Z,86.83
2022-11-04T10:04:58.423Z,87.29
2022-11-04T10:07:11.746Z,86.64
2022-11-04T10:09:33.380Z,86.39
2022-11-04T10:11:42.318Z,85.81
2022-11-04T10:13:54.843Z,85.38
2022-11-04T10:16:07.136Z,85.39
2022-11-04T10:18:24.068Z,85.44
2022-11-04T10:20:41.062Z,85.44
2022-11-04T10:22:57.273Z,84.69
2022-11-04T10:25:11.484Z,85.13
2022-11-04T10:27:17.819Z,85.09
2022-11-04T10:29:28.971Z,84.89
2022-11-04T10:31:32.452Z,84.28
2022-11-04T10:33:37.093Z,84.38
2022-11-04T10:35:44.249Z,85.49
2022-11-04T10:37:49.710Z,84.98
2022-11-04T10:39:54.611Z,84.90
2022-11-04T10:41:59.457Z,83.53
2022-11-04T10:44:06.218Z,83.06
2022-11-04T10:46:21.170Z,82.52
2022-11-04T10:48:29.492Z,83.54
2022-11-04T10:50:37.618Z,83.34
2022-11-04T10:52:41.845Z,82.88
2022-11-04T10:54:46.866Z,83.85
2022-11-04T10:56:52.509Z,83.28
2022-11-04T10:58:58.292Z,82.47
2022-11-04T11:01:01.527Z,82.80
2022-11-04T11:03:24.347Z,82.27
2022-11-04T11:05:29.216Z,83.42
2022-11-04T11:07:37.775Z,83.00
2022-11-04T11:09:54.093Z,82.36
2022-11-04T11:12:01.210Z,84.08
2022-11-04T11:14:05.644Z,82.04
2022-11-04T11:16:12.036Z,81.87
2022-11-04T11:18:16.958Z,81.62
2022-11-04T11:20:21.766Z,83.81
2022-11-04T11:22:37.824Z,80.65
2022-11-04T11:24:40.910Z,79.47
2022-11-04T11:26:48.582Z,80.67
2022-11-04T11:28:59.100Z,77.93
2022-11-04T11:31:06.662Z,78.56
2022-11-04T11:33:17.887Z,78.30
2022-11-04T11:35:23.874Z,78.51
2022-11-04T11:37:26.960Z,78.36
2022-11-04T11:39:31.761Z,77.34
2022-11-04T11:41:41.017Z,78.82
2022-11-04T11:43:50.899Z,78.55
2022-11-04T11:45:57.436Z,80.10
2022-11-04T11:48:02.378Z,79.13
2022-11-04T11:50:07.466Z,79.31
2022-11-04T11:52:32.941Z,81.05
2022-11-04T11:54:39.100Z,80.79
2022-11-04T11:57:11.945Z,78.86
2022-11-04T12:01:38.353Z,77.32
2022-11-04T12:06:18.319Z,79.51
2022-11-04T12:11:02.283Z,77.15
2022-11-04T12:13:18.256Z,78.32
2022-11-04T12:15:37.327Z,79.68
2022-11-04T12:17:54.714Z,78.80
2022-11-04T12:20:10.184Z,79.50
2022-11-04T12:22:21.888Z,80.24
2022-11-04T12:24:32.585Z,79.92
2022-11-04T12:26:39.546Z,79.17
2022-11-04T12:28:54.471Z,79.14
2022-11-04T12:31:08.765Z,79.17
2022-11-04T12:33:20.388Z,78.99
2022-11-04T12:35:34.238Z,78.43
2022-11-04T12:37:42.322Z,77.99
2022-11-04T12:39:53.604Z,78.47
2022-11-04T12:42:20.772Z,79.42
2022-11-04T12:44:31.289Z,80.94
2022-11-04T12:46:39.008Z,80.35
2022-11-04T12:48:57.058Z,80.95
2022-11-04T12:51:09.205Z,79.81
2022-11-04T12:53:30.388Z,78.75
2022-11-04T12:55:43.602Z,78.60
2022-11-04T12:57:52.443Z,79.31
2022-11-04T13:00:07.286Z,78.40
2022-11-04T13:02:16.965Z,78.10
2022-11-04T13:04:22.660Z,79.15
2022-11-04T13:06:30.084Z,77.64
2022-11-04T13:08:37.307Z,78.85
2022-11-04T13:10:44.025Z,79.27
2022-11-04T13:12:48.725Z,79.23
2022-11-04T13:14:54.673Z,78.04
2022-11-04T13:17:01.275Z,77.42
2022-11-04T13:19:06.735Z,77.40
2022-11-04T13:21:14.057Z,78.17
2022-11-04T13:23:24.066Z,77.83
2022-11-04T13:25:32.341Z,79.70
2022-11-04T13:27:38.256Z,77.06
2022-11-04T13:29:41.617Z,79.05
2022-11-04T13:31:49.197Z,77.50
2022-11-04T13:33:56.274Z,76.62
2022-11-04T13:36:03.065Z,78.33
2022-11-04T13:38:12.551Z,77.39
2022-11-04T13:40:20.395Z,77.16
2022-11-04T13:42:37.178Z,79.72
2022-11-04T13:44:42.461Z,78.15
2022-11-04T13:46:49.635Z,77.34
2022-11-04T13:48:56.257Z,77.44
2022-11-04T13:51:01.803Z,79.50
2022-11-04T13:53:06.160Z,78.65
2022-11-04T13:55:21.542Z,79.07
2022-11-04T13:57:25.741Z,78.45
2022-11-04T13:59:31.354Z,79.26
2022-11-04T14:01:35.650Z,80.59
2022-11-04T14:03:52.898Z,80.75
2022-11-04T14:06:04.962Z,79.59
2022-11-04T14:08:13.393Z,78.86
2022-11-04T14:10:39.600Z,79.44
2022-11-04T14:12:42.723Z,78.73
2022-11-04T14:14:47.651Z,79.08
2022-11-04T14:16:51.055Z,79.16
2022-11-04T14:18:55.311Z,80.11
2022-11-04T14:21:07.578Z,80.75
2022-11-04T14:23:22.582Z,79.47
2022-11-04T14:25:32.092Z,79.39
2022-11-04T14:27:41.017Z,78.38
2022-11-04T14:29:50.414Z,78.31
2022-11-04T14:31:55.393Z,78.66
2022-11-04T14:33:59.161Z,78.30
2022-11-04T14:36:38.545Z,77.93
2022-11-04T14:38:42.436Z,80.27
2022-11-04T14:40:49.159Z,80.68
2022-11-04T14:42:55.706Z,80.57
2022-11-04T14:44:59.042Z,81.35
2022-11-04T14:47:08.769Z,82.06
2022-11-04T14:49:40.324Z,83.66
2022-11-04T14:51:43.311Z,84.01
2022-11-04T14:53:46.736Z,86.00
2022-11-04T14:56:04.316Z,86.45
2022-11-04T14:58:23.600Z,86.36
2022-11-04T15:00:35.655Z,86.25
2022-11-04T15:02:38.945Z,86.13
2022-11-04T15:04:48.389Z,85.34
2022-11-04T15:06:55.779Z,88.05
2022-11-04T15:08:59.105Z,88.49
2022-11-04T15:11:13.915Z,88.54
2022-11-04T15:13:20.192Z,86.93
2022-11-04T15:15:36.072Z,87.82
2022-11-04T15:17:39.201Z,86.36
2022-11-04T15:19:44.040Z,85.53
2022-11-04T15:21:49.448Z,86.12
2022-11-04T15:23:54.156Z,85.03
2022-11-04T15:25:58.549Z,84.42
2022-11-04T15:28:01.582Z,83.60
2022-11-04T15:30:08.292Z,84.93
2022-11-04T15:32:17.865Z,85.29
2022-11-04T15:34:21.563Z,86.99
2022-11-04T15:36:28.915Z,87.07
2022-11-04T15:38:32.840Z,87.58
2022-11-04T15:40:35.976Z,87.77
2022-11-04T15:42:40.446Z,88.20
2022-11-04T15:44:47.206Z,87.75
2022-11-04T15:46:51.643Z,89.27
2022-11-04T15:49:05.562Z,89.31
2022-11-04T15:51:18.918Z,88.86
2022-11-04T15:53:23.544Z,88.08
2022-11-04T15:55:28.571Z,88.17
2022-11-04T15:57:34.747Z,88.63
2022-11-04T15:59:38.809Z,89.35
2022-11-04T16:01:46.959Z,89.74
2022-11-04T16:03:54.934Z,88.45
2022-11-04T16:06:03.783Z,88.20
2022-11-04T16:08:21.216Z,88.50
2022-11-04T16:10:30.122Z,88.18
2022-11-04T16:12:36.816Z,88.05
2022-11-04T16:14:39.890Z,88.34
2022-11-04T16:16:47.776Z,89.45
2022-11-04T16:18:53.971Z,89.52
2022-11-04T16:20:57.595Z,90.04
2022-11-04T16:23:02.496Z,90.43
2022-11-04T16:25:07.916Z,90.05
2022-11-04T16:27:13.981Z,91.20
2022-11-04T16:29:20.300Z,89.78
2022-11-04T16:31:28.405Z,89.07
2022-11-04T16:33:31.768Z,89.24
2022-11-04T16:35:34.939Z,89.47
2022-11-04T16:37:38.129Z,89.57
2022-11-04T16:39:41.700Z,90.21
2022-11-04T16:41:44.788Z,91.22
2022-11-04T16:43:49.929Z,91.01
2022-11-04T16:45:54.298Z,91.48
2022-11-04T16:47:58.163Z,91.10
2022-11-04T16:50:02.256Z,90.12
2022-11-04T16:52:12.714Z,90.21
2022-11-04T16:54:15.935Z,90.74
2022-11-04T16:56:21.467Z,90.76
2022-11-04T16:58:26.060Z,90.92
2022-11-04T17:00:32.958Z,91.31
2022-11-04T17:02:38.499Z,91.16
2022-11-04T17:04:41.626Z,90.45
2022-11-04T17:06:46.773Z,90.31
2022-11-04T17:08:50.026Z,91.07
2022-11-04T17:10:54.201Z,92.24
2022-11-04T17:12:57.321Z,92.23
2022-11-04T17:15:00.409Z,91.50
2022-11-04T17:17:06.104Z,91.02
2022-11-04T17:19:13.787Z,90.70
2022-11-04T17:21:18.047Z,91.56
2022-11-04T17:23:21.482Z,90.82
2022-11-04T17:25:26.767Z,91.40
2022-11-04T17:27:29.786Z,92.10
2022-11-04T17:29:32.869Z,90.71
2022-11-04T17:31:36.099Z,90.72
2022-11-04T17:33:40.531Z,90.38
2022-11-04T17:35:45.831Z,91.14
2022-11-04T17:37:52.677Z,90.94
2022-11-04T17:39:55.684Z,91.19
2022-11-04T17:42:16.185Z,91.78
2022-11-04T17:44:19.310Z,91.67
2022-11-04T17:46:38.897Z,91.59
2022-11-04T17:48:44.274Z,93.12
2022-11-04T17:50:47.360Z,91.96
2022-11-04T17:52:50.488Z,92.49
2022-11-04T17:54:53.551Z,92.10
2022-11-04T17:56:57.416Z,90.39
2022-11-04T17:59:02.256Z,92.14
2022-11-04T18:01:07.904Z,91.07
2022-11-04T18:03:12.272Z,92.32
2022-11-04T18:05:17.447Z,91.88
2022-11-04T18:07:20.827Z,91.85
2022-11-04T18:09:23.965Z,92.63
2022-11-04T18:11:45.642Z,92.43
2022-11-04T18:13:48.727Z,93.11
2022-11-04T18:15:51.775Z,91.89
2022-11-04T18:17:54.881Z,93.21
2022-11-04T18:19:58.339Z,93.76
2022-11-04T18:22:02.968Z,93.82
2022-11-04T18:24:08.100Z,94.00
2022-11-04T18:26:12.042Z,95.18
2022-11-04T18:28:15.116Z,94.02
2022-11-04T18:30:18.943Z,94.60
2022-11-04T18:32:22.133Z,95.57
2022-11-04T18:34:25.194Z,94.10
2022-11-04T18:36:28.355Z,95.73
2022-11-04T18:38:32.733Z,94.26
2022-11-04T18:40:35.970Z,94.07
2022-11-04T18:42:39.073Z,93.81
2022-11-04T18:44:42.188Z,94.31
2022-11-04T18:46:45.766Z,94.85
2022-11-04T18:48:50.265Z,93.49
2022-11-04T18:50:53.624Z,93.95
2022-11-04T18:52:56.752Z,93.84
2022-11-04T18:55:01.394Z,93.52
2022-11-04T18:57:05.313Z,93.37
2022-11-04T18:59:09.996Z,93.85
2022-11-04T19:01:18.350Z,94.46
2022-11-04T19:03:23.520Z,95.04
2022-11-04T19:05:28.032Z,94.33
2022-11-04T19:07:31.236Z,94.05
2022-11-04T19:09:49.696Z,95.53
2022-11-04T19:12:15.514Z,93.57
2022-11-04T19:14:20.309Z,94.03
2022-11-04T19:16:24.123Z,94.88
2022-11-04T19:18:27.353Z,94.49
2022-11-04T19:20:30.451Z,95.47
2022-11-04T19:22:33.626Z,95.71
2022-11-04T19:24:36.852Z,94.30
2022-11-04T19:26:41.070Z,95.31
2022-11-04T19:28:48.482Z,93.52
2022-11-04T19:30:58.857Z,95.50
2022-11-04T19:33:02.169Z,95.31
2022-11-04T19:35:05.906Z,94.38
2022-11-04T19:37:09.543Z,95.08
2022-11-04T19:39:12.964Z,93.80
2022-11-04T19:41:35.286Z,95.56
2022-11-04T19:43:38.486Z,93.56
2022-11-04T19:45:44.140Z,95.76
2022-11-04T19:47:47.175Z,94.46
2022-11-04T19:49:50.234Z,94.29
2022-11-04T19:51:53.663Z,94.03
2022-11-04T19:53:57.100Z,94.54
2022-11-04T19:56:00.128Z,94.80
2022-11-04T19:58:03.597Z,94.03
2022-11-04T20:00:08.457Z,94.30
2022-11-04T20:02:17.062Z,95.74
2022-11-04T20:04:20.249Z,95.59
2022-11-04T20:06:26.518Z,95.76
2022-11-04T20:08:33.212Z,94.00
2022-11-04T20:10:37.922Z,94.29
2022-11-04T20:12:58.778Z,93.58
2022-11-04T20:15:01.952Z,95.61
2022-11-04T20:17:06.609Z,95.14
2022-11-04T20:19:11.689Z,95.35
2022-11-04T20:21:15.697Z,96.12
2022-11-04T20:23:18.776Z,94.40
2022-11-04T20:25:21.902Z,96.16
2022-11-04T20:27:25.273Z,95.40
2022-11-04T20:29:28.718Z,94.26
2022-11-04T20:31:34.104Z,93.59
2022-11-04T20:33:37.575Z,94.27
2022-11-04T20:35:42.065Z,93.69
2022-11-04T20:37:46.864Z,95.31
2022-11-04T20:39:49.887Z,94.47
2022-11-04T20:41:53.004Z,96.52
2022-11-04T20:43:56.561Z,95.64
2022-11-04T20:46:03.522Z,95.01
2022-11-04T20:48:07.659Z,94.61
2022-11-04T20:50:11.561Z,94.96
2022-11-04T20:52:16.657Z,96.34
2022-11-04T20:54:20.830Z,95.17
2022-11-04T20:56:26.353Z,95.51
2022-11-04T20:58:31.538Z,96.78
2022-11-04T21:00:34.738Z,96.32
2022-11-04T21:02:37.834Z,95.64
2022-11-04T21:04:41.383Z,96.53
2022-11-04T21:06:44.588Z,95.10
2022-11-04T21:08:49.278Z,95.54
2022-11-04T21:10:52.692Z,95.98
2022-11-04T21:12:55.700Z,96.11
2022-11-04T21:14:58.785Z,95.53
2022-11-04T21:17:01.909Z,96.04
2022-11-04T21:19:05.721Z,96.58
2022-11-04T21:21:10.530Z,96.43
2022-11-04T21:23:15.040Z,97.02
2022-11-04T21:25:19.526Z,97.32
2022-11-04T21:27:22.530Z,97.90
2022-11-04T21:29:25.848Z,96.54
2022-11-04T21:31:30.491Z,96.49
2022-11-04T21:33:33.591Z,97.36
2022-11-04T21:35:37.418Z,96.85
2022-11-04T21:37:40.461Z,98.30
2022-11-04T21:39:43.639Z,96.95
2022-11-04T21:41:48.117Z,97.69
2022-11-04T21:43:57.798Z,97.63
2022-11-04T21:46:04.057Z,97.88
2022-11-04T21:48:08.002Z,96.82
2022-11-04T21:50:17.731Z,99.20
2022-11-04T21:52:21.173Z,99.42
2022-11-04T21:54:24.397Z,98.35
2022-11-04T21:56:28.853Z,97.29
2022-11-04T21:58:33.678Z,97.64
2022-11-04T22:00:36.800Z,98.33
2022-11-04T22:02:43.520Z,98.29
2022-11-04T22:04:46.658Z,98.00
2022-11-04T22:06:49.697Z,97.77
2022-11-04T22:08:54.094Z,98.76
2022-11-04T22:10:57.742Z,97.79
2022-11-04T22:13:00.883Z,97.71
2022-11-04T22:15:05.775Z,97.53
2022-11-04T22:17:09.252Z,98.11
2022-11-04T22:19:14.446Z,98.70
2022-11-04T22:21:19.057Z,98.14
2022-11-04T22:23:22.310Z,98.20
2022-11-04T22:25:25.378Z,96.79
2022-11-04T22:27:28.670Z,96.91
2022-11-04T22:29:32.106Z,98.06
2022-11-04T22:31:37.933Z,98.93
2022-11-04T22:33:41.059Z,97.02
2022-11-04T22:35:45.845Z,98.73
2022-11-04T22:37:48.887Z,97.65
2022-11-04T22:39:52.337Z,98.30
2022-11-04T22:41:55.456Z,99.50
2022-11-04T22:43:58.836Z,97.48
2022-11-04T22:46:06.603Z,99.18
2022-11-04T22:48:11.106Z,99.15
2022-11-04T22:50:14.401Z,98.73
2022-11-04T22:52:17.825Z,99.05
2022-11-04T22:54:20.910Z,98.98
2022-11-04T22:56:23.976Z,98.32
2022-11-04T22:58:27.253Z,98.42
2022-11-04T23:00:30.505Z,97.52
2022-11-04T23:02:36.830Z,99.37
2022-11-04T23:04:42.509Z,99.64
2022-11-04T23:06:45.663Z,100.00
2022-11-04T23:08:49.177Z,100.00
2022-11-04T23:11:12.605Z,100.00
2022-11-04T23:13:33.731Z,100.00
2022-11-04T23:15:57.707Z,99.75
2022-11-04T23:18:18.244Z,100.00
2022-11-04T23:20:27.570Z,100.00
2022-11-04T23:22:48.234Z,100.00
2022-11-04T23:25:09.797Z,99.60
2022-11-04T23:27:33.264Z,100.00
2022-11-04T23:29:53.539Z,99.33
2022-11-04T23:31:56.589Z,100.00
2022-11-04T23:34:17.243Z,99.61
2022-11-04T23:36:39.188Z,100.00
2022-11-04T23:38:45.296Z,98.74
2022-11-04T23:41:12.632Z,100.00
2022-11-04T23:43:15.639Z,100.00
2022-11-04T23:45:36.400Z,100.00
2022-11-04T23:47:58.631Z,100.00
2022-11-04T23:50:15.579Z,100.00
2022-11-04T23:52:37.548Z,100.00
2022-11-04T23:54:58.034Z,100.00
2022-11-04T23:57:18.500Z,100.00
2022-11-04T23:59:50.503Z,100.00
